Time;durP1;ratioP1;P1;durP2;ratioP2;P2;SDS_P1;SDS_P2;PMS_P1;PMS_P2;Temp;Humidity;BMP_temperature;BMP_pressure;BME280_temperature;BME280_humidity;BME280_pressure;Samples;Min_cycle;Max_cycle;Signal;HPM_P1;HPM_P2
2021/09/25 00:00:01;;;;;;;9.40;5.40;;;14.80;96.50;;;;;;5072184;28;20028;-75
2021/09/25 00:02:27;;;;;;;9.40;5.47;;;14.80;96.40;;;;;;5072519;28;20033;-75
2021/09/25 00:04:52;;;;;;;8.90;5.30;;;14.80;96.40;;;;;;5071772;28;20035;-79
2021/09/25 00:07:18;;;;;;;8.20;5.32;;;14.70;96.50;;;;;;5072263;28;20385;-75
2021/09/25 00:09:43;;;;;;;9.85;5.28;;;14.60;96.30;;;;;;5072015;28;20028;-75
2021/09/25 00:12:10;;;;;;;10.95;5.30;;;14.70;96.10;;;;;;5072761;28;20032;-74
2021/09/25 00:14:40;;;;;;;7.80;5.10;;;14.60;95.90;;;;;;5072094;28;20431;-75
2021/09/25 00:17:07;;;;;;;7.15;4.95;;;14.40;95.80;;;;;;5072669;28;20519;-75
2021/09/25 00:19:33;;;;;;;8.43;5.43;;;14.40;96.00;;;;;;5072354;28;20039;-75
2021/09/25 00:22:00;;;;;;;9.57;5.20;;;14.30;96.10;;;;;;5071619;28;20470;-76
2021/09/25 00:24:26;;;;;;;8.07;5.22;;;14.30;96.20;;;;;;5073248;28;20059;-75
2021/09/25 00:26:51;;;;;;;10.20;5.40;;;14.30;96.10;;;;;;5072116;28;20056;-75
2021/09/25 00:29:17;;;;;;;6.13;4.53;;;14.30;95.90;;;;;;5071687;28;20031;-75
2021/09/25 00:31:43;;;;;;;7.22;5.15;;;14.30;96.00;;;;;;5073290;28;20373;-75
2021/09/25 00:34:09;;;;;;;7.03;5.25;;;14.30;96.10;;;;;;5071707;28;20028;-75
2021/09/25 00:36:34;;;;;;;10.90;5.28;;;14.20;96.00;;;;;;5072099;28;20358;-75
2021/09/25 00:39:00;;;;;;;8.90;5.00;;;14.10;95.90;;;;;;5071436;28;20025;-75
2021/09/25 00:41:25;;;;;;;7.93;4.55;;;14.10;95.90;;;;;;5076230;28;20035;-75
2021/09/25 00:43:52;;;;;;;6.00;4.40;;;14.00;96.00;;;;;;5076558;28;20025;-75
2021/09/25 00:46:20;;;;;;;7.45;5.10;;;14.00;96.10;;;;;;5075308;28;20068;-75
2021/09/25 00:48:46;;;;;;;10.15;4.95;;;14.00;96.10;;;;;;5075598;28;20086;-75
2021/09/25 00:51:12;;;;;;;8.60;5.07;;;14.00;95.90;;;;;;5076371;28;20032;-75
2021/09/25 00:53:38;;;;;;;8.30;5.00;;;14.00;95.90;;;;;;5075795;28;20036;-75
2021/09/25 00:56:06;;;;;;;8.23;5.05;;;14.00;95.90;;;;;;5076066;28;20044;-75
2021/09/25 00:58:32;;;;;;;7.43;4.97;;;13.90;95.90;;;;;;5075365;28;20024;-75
2021/09/25 01:00:58;;;;;;;8.38;5.35;;;13.90;95.90;;;;;;5076368;28;20043;-76
2021/09/25 01:03:23;;;;;;;8.15;5.07;;;13.80;96.00;;;;;;5076622;28;20454;-75
2021/09/25 01:05:49;;;;;;;7.45;4.90;;;13.80;96.10;;;;;;5075573;28;20453;-75
2021/09/25 01:08:15;;;;;;;11.27;4.72;;;13.80;96.20;;;;;;5074882;28;20699;-75
2021/09/25 01:10:41;;;;;;;8.45;4.60;;;13.80;96.30;;;;;;5075594;28;20047;-75
2021/09/25 01:13:07;;;;;;;7.88;4.78;;;13.80;96.30;;;;;;5074755;28;20043;-75
2021/09/25 01:15:34;;;;;;;9.50;5.43;;;13.70;96.40;;;;;;5075293;28;20067;-75
2021/09/25 01:17:59;;;;;;;6.85;4.60;;;13.70;96.50;;;;;;5075813;28;20029;-75
2021/09/25 01:20:25;;;;;;;8.90;5.07;;;13.60;96.50;;;;;;5075082;28;20025;-75
2021/09/25 01:22:51;;;;;;;14.75;5.55;;;13.60;96.60;;;;;;5074493;28;20040;-75
2021/09/25 01:25:17;;;;;;;6.70;4.72;;;13.60;96.50;;;;;;5074412;28;20083;-75
2021/09/25 01:27:42;;;;;;;7.45;4.75;;;13.60;96.50;;;;;;5076120;28;20070;-75
2021/09/25 01:30:14;;;;;;;6.15;4.43;;;13.60;96.40;;;;;;5075447;28;20033;-75
2021/09/25 01:32:40;;;;;;;8.48;5.05;;;13.70;96.40;;;;;;5075071;28;20385;-75
2021/09/25 01:35:06;;;;;;;7.75;4.95;;;13.70;96.40;;;;;;5074261;28;20028;-75
2021/09/25 01:37:31;;;;;;;7.82;5.07;;;13.70;96.30;;;;;;5074750;28;20116;-75
2021/09/25 01:39:57;;;;;;;7.80;5.32;;;13.60;96.50;;;;;;5075021;28;20111;-76
2021/09/25 01:42:23;;;;;;;7.70;4.82;;;13.50;96.50;;;;;;5074746;28;20024;-75
2021/09/25 01:44:51;;;;;;;8.68;5.05;;;13.40;96.50;;;;;;5075619;28;20020;-76
2021/09/25 01:47:17;;;;;;;7.78;5.20;;;13.40;96.70;;;;;;5073955;28;20100;-75
2021/09/25 01:49:43;;;;;;;8.27;4.90;;;13.50;97.10;;;;;;5074325;28;20473;-75
2021/09/25 01:52:08;;;;;;;8.85;5.30;;;13.40;96.90;;;;;;5074419;28;20036;-75
2021/09/25 01:54:34;;;;;;;8.82;5.65;;;13.40;97.20;;;;;;5075517;28;20461;-75
2021/09/25 01:57:00;;;;;;;8.52;5.20;;;13.40;97.20;;;;;;5074607;28;20056;-75
2021/09/25 01:59:25;;;;;;;8.50;5.60;;;13.40;97.40;;;;;;5074449;28;20078;-75
2021/09/25 02:01:51;;;;;;;9.27;5.80;;;13.40;97.30;;;;;;5074151;28;20028;-75
2021/09/25 02:04:17;;;;;;;10.55;5.30;;;13.50;97.40;;;;;;5075132;28;20108;-75
2021/09/25 02:06:43;;;;;;;8.65;5.68;;;13.50;97.00;;;;;;5074243;28;20063;-75
2021/09/25 02:09:08;;;;;;;8.68;5.80;;;13.50;96.80;;;;;;5073602;28;20465;-75
2021/09/25 02:11:34;;;;;;;8.30;5.32;;;13.40;96.90;;;;;;5075425;28;20063;-75
2021/09/25 02:13:59;;;;;;;8.52;5.35;;;13.30;97.00;;;;;;5074924;28;20449;-78
2021/09/25 02:16:25;;;;;;;7.53;5.18;;;13.30;97.10;;;;;;5075301;28;20024;-75
2021/09/25 02:18:51;;;;;;;11.02;5.13;;;13.40;96.90;;;;;;5074166;28;20028;-75
2021/09/25 02:21:16;;;;;;;8.43;5.50;;;13.30;96.90;;;;;;5073328;28;20028;-75
2021/09/25 02:23:42;;;;;;;9.23;5.35;;;13.30;96.80;;;;;;5073824;28;20539;-75
2021/09/25 02:26:08;;;;;;;8.07;5.28;;;13.30;96.80;;;;;;5073415;28;20035;-75
2021/09/25 02:28:34;;;;;;;8.15;5.43;;;13.20;96.80;;;;;;5073947;28;20031;-75
2021/09/25 02:31:00;;;;;;;9.15;5.25;;;13.20;96.90;;;;;;5073831;28;20025;-75
2021/09/25 02:33:26;;;;;;;9.95;5.45;;;13.20;96.90;;;;;;5074811;28;20059;-75
2021/09/25 02:35:53;;;;;;;7.30;5.03;;;13.10;97.10;;;;;;5074757;28;20056;-75
2021/09/25 02:38:19;;;;;;;9.25;5.15;;;13.00;97.30;;;;;;5074195;28;20028;-75
2021/09/25 02:40:45;;;;;;;7.55;5.22;;;13.00;97.60;;;;;;5073488;28;20370;-75
2021/09/25 02:43:11;;;;;;;10.13;5.70;;;12.90;97.50;;;;;;5074398;28;20040;-75
2021/09/25 02:45:37;;;;;;;9.38;6.05;;;12.90;97.50;;;;;;5073419;28;20032;-76
2021/09/25 02:48:04;;;;;;;10.98;5.82;;;12.80;97.40;;;;;;5073218;28;20039;-76
2021/09/25 02:50:30;;;;;;;8.60;5.43;;;12.90;97.50;;;;;;5073655;28;20025;-75
2021/09/25 02:52:56;;;;;;;6.75;4.68;;;12.90;97.30;;;;;;5073829;28;20078;-75
2021/09/25 02:55:22;;;;;;;7.80;4.93;;;13.00;97.20;;;;;;5073766;28;20614;-75
2021/09/25 02:57:48;;;;;;;7.25;5.18;;;12.90;97.10;;;;;;5074545;28;20047;-75
2021/09/25 03:00:16;;;;;;;10.68;5.43;;;12.90;97.10;;;;;;5074079;28;20052;-76
2021/09/25 03:02:43;;;;;;;7.68;5.03;;;13.00;97.00;;;;;;5074177;28;20025;-75
2021/09/25 03:05:09;;;;;;;6.47;4.35;;;13.00;96.80;;;;;;5072652;28;20033;-76
2021/09/25 03:07:35;;;;;;;8.75;5.50;;;13.00;96.70;;;;;;5072894;28;20036;-75
2021/09/25 03:10:01;;;;;;;10.80;4.97;;;12.90;96.90;;;;;;5073233;28;20032;-75
2021/09/25 03:12:26;;;;;;;7.72;4.80;;;12.90;96.70;;;;;;5073846;28;20024;-75
2021/09/25 03:14:52;;;;;;;8.82;4.45;;;12.80;96.80;;;;;;5073053;28;20451;-76
2021/09/25 03:17:18;;;;;;;8.70;4.85;;;12.80;96.80;;;;;;5073069;28;20044;-75
2021/09/25 03:19:46;;;;;;;8.45;5.18;;;12.80;96.70;;;;;;5073963;28;20029;-75
2021/09/25 03:22:12;;;;;;;7.57;4.93;;;12.70;96.80;;;;;;5072299;28;20032;-75
2021/09/25 03:24:38;;;;;;;8.82;5.18;;;12.60;96.80;;;;;;5072900;28;20083;-75
2021/09/25 03:27:04;;;;;;;8.93;5.18;;;12.60;97.00;;;;;;5072423;28;20052;-79
2021/09/25 03:29:30;;;;;;;7.93;4.78;;;12.60;97.00;;;;;;5072958;28;20358;-75
2021/09/25 03:31:55;;;;;;;7.75;4.82;;;12.60;97.10;;;;;;5073682;28;20493;-75
2021/09/25 03:34:21;;;;;;;8.95;5.05;;;12.60;96.90;;;;;;5071836;28;20465;-75
2021/09/25 03:36:47;;;;;;;7.45;4.55;;;12.70;96.90;;;;;;5074093;28;20115;-75
2021/09/25 03:39:12;;;;;;;6.15;4.43;;;12.70;96.50;;;;;;5073389;28;20021;-75
2021/09/25 03:41:38;;;;;;;7.50;4.30;;;12.80;96.30;;;;;;5072766;28;20029;-75
2021/09/25 03:44:04;;;;;;;8.98;5.00;;;12.70;96.30;;;;;;5072403;28;20031;-75
2021/09/25 03:46:31;;;;;;;8.23;4.57;;;12.60;96.60;;;;;;5072475;28;20098;-75
2021/09/25 03:48:57;;;;;;;8.30;4.70;;;12.50;96.80;;;;;;5072634;28;20029;-76
2021/09/25 03:51:22;;;;;;;6.47;4.50;;;12.40;97.00;;;;;;5071779;28;20029;-76
2021/09/25 03:53:48;;;;;;;6.82;4.68;;;12.50;97.00;;;;;;5073758;28;20480;-75
2021/09/25 03:56:14;;;;;;;7.40;4.45;;;12.50;96.90;;;;;;5071518;28;20098;-76
2021/09/25 03:58:40;;;;;;;8.20;4.55;;;12.50;96.90;;;;;;5072626;28;20079;-76
2021/09/25 04:01:07;;;;;;;12.02;4.60;;;12.40;97.10;;;;;;5072835;28;20032;-79
2021/09/25 04:03:32;;;;;;;6.35;4.43;;;12.40;97.30;;;;;;5072468;28;20024;-76
2021/09/25 04:05:58;;;;;;;6.30;4.55;;;12.20;97.50;;;;;;5072240;28;20050;-75
2021/09/25 04:08:29;;;;;;;7.10;4.45;;;12.20;97.60;;;;;;5072879;28;20032;-76
2021/09/25 04:10:54;;;;;;;7.68;4.63;;;12.20;97.40;;;;;;5072316;28;20040;-76
2021/09/25 04:13:20;;;;;;;7.55;4.78;;;12.20;97.40;;;;;;5071691;28;20028;-76
2021/09/25 04:15:46;;;;;;;6.43;4.18;;;12.20;97.50;;;;;;5071786;28;20029;-75
2021/09/25 04:18:11;;;;;;;7.72;4.38;;;12.10;97.60;;;;;;5072929;28;20074;-75
2021/09/25 04:20:37;;;;;;;8.13;4.10;;;12.10;97.50;;;;;;5072290;28;20025;-76
2021/09/25 04:23:03;;;;;;;7.50;4.35;;;12.10;97.60;;;;;;5072321;28;20055;-76
2021/09/25 04:25:32;;;;;;;5.88;4.07;;;12.10;97.50;;;;;;5072724;28;20101;-76
2021/09/25 04:28:05;;;;;;;7.40;4.82;;;12.10;97.50;;;;;;5072373;28;20024;-75
2021/09/25 04:30:32;;;;;;;6.90;4.78;;;12.00;97.50;;;;;;5071502;28;20028;-75
2021/09/25 04:32:57;;;;;;;5.63;4.00;;;11.90;97.60;;;;;;5071894;28;20052;-76
2021/09/25 04:35:23;;;;;;;7.82;4.00;;;11.90;97.70;;;;;;5072365;28;20052;-76
2021/09/25 04:37:49;;;;;;;6.13;4.05;;;12.00;97.70;;;;;;5073290;28;20032;-76
2021/09/25 04:40:15;;;;;;;6.72;4.70;;;12.10;97.40;;;;;;5071468;28;20389;-76
2021/09/25 04:42:42;;;;;;;6.57;4.07;;;12.20;97.10;;;;;;5073073;28;20029;-75
2021/09/25 04:45:12;;;;;;;9.05;4.88;;;12.30;97.10;;;;;;5072105;28;20060;-75
2021/09/25 04:47:39;;;;;;;7.13;4.70;;;12.40;97.10;;;;;;5071624;28;20107;-76
2021/09/25 04:50:06;;;;;;;6.22;4.43;;;12.30;97.30;;;;;;5072663;28;20032;-75
2021/09/25 04:52:31;;;;;;;6.47;4.07;;;12.30;97.10;;;;;;5072645;28;20025;-75
2021/09/25 04:54:57;;;;;;;7.68;4.88;;;12.20;97.20;;;;;;5072066;28;20124;-75
2021/09/25 04:57:22;;;;;;;8.05;4.60;;;12.20;97.60;;;;;;5072077;28;20052;-75
2021/09/25 04:59:48;;;;;;;7.53;4.55;;;12.30;97.50;;;;;;5071176;28;20029;-76
2021/09/25 05:02:14;;;;;;;7.50;4.07;;;12.20;97.20;;;;;;5071063;28;20082;-76
2021/09/25 05:04:39;;;;;;;6.18;4.20;;;12.20;97.10;;;;;;5071577;28;20545;-75
2021/09/25 05:07:05;;;;;;;7.85;4.57;;;12.20;97.10;;;;;;5071632;28;20470;-75
2021/09/25 05:09:30;;;;;;;7.47;4.20;;;12.10;96.80;;;;;;5071087;28;20035;-76
2021/09/25 05:11:56;;;;;;;5.40;3.97;;;12.10;97.00;;;;;;5073041;28;20071;-76
2021/09/25 05:14:21;;;;;;;6.60;4.15;;;12.00;97.10;;;;;;5072359;28;20112;-80
2021/09/25 05:16:47;;;;;;;5.93;3.97;;;12.00;97.30;;;;;;5071690;28;20028;-76
2021/09/25 05:19:13;;;;;;;5.30;3.70;;;12.00;97.50;;;;;;5071049;28;20099;-77
2021/09/25 05:21:38;;;;;;;7.30;4.60;;;11.90;97.50;;;;;;5071749;28;20081;-76
2021/09/25 05:24:05;;;;;;;7.50;4.45;;;11.90;97.60;;;;;;5071755;28;20025;-76
2021/09/25 05:26:30;;;;;;;7.03;4.55;;;11.90;97.50;;;;;;5072180;28;20089;-76
2021/09/25 05:28:56;;;;;;;5.78;3.97;;;11.80;97.50;;;;;;5076078;28;20437;-76
2021/09/25 05:31:21;;;;;;;6.75;4.43;;;11.90;97.50;;;;;;5074276;28;20028;-75
2021/09/25 05:33:47;;;;;;;7.72;4.18;;;11.90;97.50;;;;;;5074923;28;20031;-76
2021/09/25 05:36:13;;;;;;;6.38;3.80;;;12.00;97.40;;;;;;5074524;28;20032;-77
2021/09/25 05:38:38;;;;;;;6.00;3.90;;;11.90;97.30;;;;;;5076133;28;20028;-75
2021/09/25 05:41:04;;;;;;;5.68;4.05;;;12.00;97.10;;;;;;5074913;28;20029;-76
2021/09/25 05:43:30;;;;;;;6.78;3.38;;;11.90;97.20;;;;;;5074291;28;20115;-76
2021/09/25 05:45:55;;;;;;;5.82;4.03;;;11.90;97.30;;;;;;5074786;28;20056;-75
2021/09/25 05:48:21;;;;;;;7.50;3.85;;;11.80;97.40;;;;;;5075329;28;20040;-76
2021/09/25 05:50:47;;;;;;;7.78;3.95;;;11.80;97.50;;;;;;5074636;28;20060;-75
2021/09/25 05:53:12;;;;;;;7.55;4.15;;;11.90;97.50;;;;;;5074514;28;20020;-79
2021/09/25 05:55:40;;;;;;;5.20;3.88;;;11.90;97.40;;;;;;5074295;28;20076;-75
2021/09/25 05:58:05;;;;;;;7.15;4.07;;;12.00;97.30;;;;;;5075285;28;20089;-76
2021/09/25 06:00:31;;;;;;;6.80;4.00;;;12.00;97.40;;;;;;5075467;28;20462;-76
2021/09/25 06:03:01;;;;;;;6.90;4.22;;;12.10;97.40;;;;;;5074710;28;20122;-75
2021/09/25 06:05:29;;;;;;;6.10;4.03;;;12.10;97.30;;;;;;5075365;28;20027;-75
2021/09/25 06:07:55;;;;;;;5.88;3.88;;;12.00;97.40;;;;;;5074293;28;20028;-75
2021/09/25 06:10:20;;;;;;;7.32;4.43;;;12.00;97.60;;;;;;5073571;28;20120;-76
2021/09/25 06:12:46;;;;;;;8.63;4.05;;;12.00;97.60;;;;;;5075610;28;20029;-76
2021/09/25 06:15:12;;;;;;;6.85;4.30;;;12.10;97.70;;;;;;5074321;28;20086;-75
2021/09/25 06:17:38;;;;;;;8.50;4.15;;;12.10;97.60;;;;;;5074823;28;20074;-75
2021/09/25 06:20:04;;;;;;;8.18;4.45;;;12.10;97.80;;;;;;5074457;28;20033;-76
2021/09/25 06:22:30;;;;;;;6.35;4.07;;;12.20;97.90;;;;;;5073404;28;20032;-76
2021/09/25 06:24:56;;;;;;;6.10;4.68;;;12.20;97.90;;;;;;5074091;28;20431;-75
2021/09/25 06:27:21;;;;;;;5.80;4.35;;;12.20;98.00;;;;;;5073544;28;20031;-76
2021/09/25 06:29:47;;;;;;;7.57;4.43;;;12.30;98.10;;;;;;5074844;28;20524;-76
2021/09/25 06:32:12;;;;;;;6.90;4.38;;;12.20;98.10;;;;;;5075039;28;20055;-76
2021/09/25 06:34:38;;;;;;;7.55;4.38;;;12.30;98.30;;;;;;5074616;28;20032;-75
2021/09/25 06:37:04;;;;;;;7.05;4.70;;;12.30;98.30;;;;;;5073535;28;20062;-75
2021/09/25 06:39:30;;;;;;;7.20;4.65;;;12.40;98.50;;;;;;5072803;28;20036;-76
2021/09/25 06:41:56;;;;;;;6.85;4.20;;;12.40;98.60;;;;;;5073634;28;20029;-75
2021/09/25 06:44:22;;;;;;;8.23;4.63;;;12.30;98.70;;;;;;5073090;28;20415;-76
2021/09/25 06:46:47;;;;;;;9.70;4.45;;;12.40;98.80;;;;;;5073734;28;20029;-77
2021/09/25 06:49:13;;;;;;;9.23;4.50;;;12.40;98.80;;;;;;5073470;28;20033;-77
2021/09/25 06:51:41;;;;;;;7.72;4.40;;;12.50;98.70;;;;;;5072820;28;20032;-77
2021/09/25 06:54:07;;;;;;;7.68;4.45;;;12.50;98.90;;;;;;5073044;28;20033;-77
2021/09/25 06:56:32;;;;;;;10.05;5.10;;;12.60;98.90;;;;;;5072523;28;20098;-77
2021/09/25 06:58:58;;;;;;;8.05;5.00;;;12.60;98.90;;;;;;5073329;28;20492;-77
2021/09/25 07:01:24;;;;;;;8.65;5.00;;;12.60;99.10;;;;;;5072544;28;20575;-77
2021/09/25 07:03:49;;;;;;;9.25;5.10;;;12.60;99.10;;;;;;5073997;28;20029;-77
2021/09/25 07:06:15;;;;;;;8.70;5.57;;;12.70;99.20;;;;;;5072906;28;20028;-76
2021/09/25 07:08:40;;;;;;;8.38;5.63;;;12.80;99.40;;;;;;5072473;28;20052;-77
2021/09/25 07:11:06;;;;;;;9.25;5.40;;;12.80;99.40;;;;;;5074109;28;20028;-77
2021/09/25 07:13:32;;;;;;;10.98;5.93;;;12.90;99.50;;;;;;5072607;28;20350;-77
2021/09/25 07:15:57;;;;;;;9.43;5.85;;;13.00;99.40;;;;;;5072933;28;20028;-77
2021/09/25 07:18:23;;;;;;;8.57;5.35;;;13.10;99.30;;;;;;5073717;28;20470;-77
2021/09/25 07:20:49;;;;;;;7.30;4.97;;;13.10;99.30;;;;;;5072662;28;20032;-77
2021/09/25 07:23:15;;;;;;;8.32;5.93;;;13.20;99.50;;;;;;5073040;28;20025;-77
2021/09/25 07:25:41;;;;;;;10.73;5.80;;;13.20;99.50;;;;;;5072240;28;20036;-77
2021/09/25 07:28:07;;;;;;;8.02;5.45;;;13.30;99.60;;;;;;5072872;28;20021;-76
2021/09/25 07:30:36;;;;;;;8.02;5.50;;;13.40;99.50;;;;;;5072111;28;20048;-77
2021/09/25 07:33:06;;;;;;;10.63;5.78;;;13.40;99.50;;;;;;5072466;28;20029;-77
2021/09/25 07:35:34;;;;;;;9.45;6.40;;;13.50;99.50;;;;;;5072318;28;20020;-77
2021/09/25 07:38:04;;;;;;;10.80;5.82;;;13.50;99.40;;;;;;5072840;28;20024;-77
2021/09/25 07:40:30;;;;;;;8.80;5.85;;;13.60;99.40;;;;;;5072077;28;20024;-78
2021/09/25 07:42:56;;;;;;;8.65;5.47;;;13.70;99.80;;;;;;5073563;28;20085;-77
2021/09/25 07:45:21;;;;;;;10.88;5.97;;;13.80;99.60;;;;;;5072356;28;20032;-78
2021/09/25 07:47:47;;;;;;;8.35;5.55;;;13.90;99.20;;;;;;5072529;28;20457;-76
2021/09/25 07:50:13;;;;;;;12.63;5.50;;;13.90;99.20;;;;;;5071922;28;20029;-77
2021/09/25 07:52:42;;;;;;;10.18;5.22;;;14.10;99.00;;;;;;5072115;28;20035;-77
2021/09/25 07:55:10;;;;;;;7.63;5.30;;;14.10;98.80;;;;;;5072387;28;20548;-78
2021/09/25 07:57:36;;;;;;;7.90;5.18;;;14.10;99.00;;;;;;5072868;28;20381;-77
2021/09/25 08:00:04;;;;;;;11.27;6.13;;;14.10;98.80;;;;;;5073616;28;20036;-77
2021/09/25 08:02:30;;;;;;;9.55;5.95;;;14.10;98.70;;;;;;5071661;28;20024;-77
2021/09/25 08:04:55;;;;;;;10.80;5.88;;;14.30;98.70;;;;;;5072359;28;20025;-77
2021/09/25 08:07:21;;;;;;;11.23;5.70;;;14.40;98.70;;;;;;5072867;28;20036;-79
2021/09/25 08:09:46;;;;;;;8.27;5.00;;;14.30;98.30;;;;;;5073244;28;20115;-78
2021/09/25 08:12:12;;;;;;;10.13;5.07;;;14.30;98.30;;;;;;5072498;28;20389;-77
2021/09/25 08:14:38;;;;;;;9.65;5.78;;;14.40;98.20;;;;;;5072972;28;20025;-77
2021/09/25 08:17:03;;;;;;;10.60;6.75;;;14.50;98.50;;;;;;5073482;28;20032;-77
2021/09/25 08:19:29;;;;;;;11.63;6.30;;;14.50;98.40;;;;;;5071877;28;20042;-77
2021/09/25 08:21:55;;;;;;;8.50;5.32;;;14.60;98.10;;;;;;5072300;28;20086;-76
2021/09/25 08:24:20;;;;;;;9.05;5.53;;;14.80;98.10;;;;;;5072242;28;20028;-77
2021/09/25 08:26:46;;;;;;;8.88;5.38;;;14.80;97.90;;;;;;5072952;28;20060;-77
2021/09/25 08:29:12;;;;;;;9.93;4.88;;;14.80;97.80;;;;;;5072002;28;20031;-77
2021/09/25 08:31:37;;;;;;;10.23;4.90;;;14.90;97.50;;;;;;5072793;28;20029;-77
2021/09/25 08:34:03;;;;;;;8.18;4.97;;;14.90;97.40;;;;;;5071840;28;20028;-77
2021/09/25 08:36:29;;;;;;;9.20;5.03;;;15.00;97.20;;;;;;5072634;28;20028;-77
2021/09/25 08:38:54;;;;;;;9.38;5.40;;;15.00;97.10;;;;;;5072245;28;20024;-77
2021/09/25 08:41:20;;;;;;;7.55;4.95;;;15.10;97.10;;;;;;5072255;28;20102;-77
2021/09/25 08:43:46;;;;;;;9.07;5.13;;;15.20;97.20;;;;;;5071396;28;20480;-78
2021/09/25 08:46:14;;;;;;;8.95;5.20;;;15.20;97.00;;;;;;5071883;28;20059;-77
2021/09/25 08:48:39;;;;;;;7.13;4.88;;;15.20;96.90;;;;;;5071058;28;20128;-77
2021/09/25 08:51:06;;;;;;;6.90;4.60;;;15.30;96.90;;;;;;5072036;28;20075;-77
2021/09/25 08:53:32;;;;;;;12.68;4.63;;;15.30;96.80;;;;;;5072552;28;20052;-78
2021/09/25 08:55:58;;;;;;;8.07;4.80;;;15.30;96.90;;;;;;5071796;28;20528;-77
2021/09/25 08:58:24;;;;;;;7.03;4.75;;;15.40;96.70;;;;;;5072793;28;20025;-80
2021/09/25 09:00:53;;;;;;;8.52;4.40;;;15.40;96.70;;;;;;5072518;28;20021;-77
2021/09/25 09:03:32;;;;;;;6.75;4.35;;;15.40;96.50;;;;;;5075407;28;20123;-77
2021/09/25 09:06:09;;;;;;;7.05;4.25;;;15.50;96.60;;;;;;5076791;28;20101;-77
2021/09/25 09:08:36;;;;;;;8.32;4.90;;;15.60;96.20;;;;;;5076116;28;20025;-78
2021/09/25 09:11:02;;;;;;;7.70;4.97;;;15.50;96.10;;;;;;5076526;28;20091;-77
2021/09/25 09:13:28;;;;;;;7.50;5.10;;;15.60;96.00;;;;;;5074679;28;20469;-77
2021/09/25 09:15:54;;;;;;;8.70;5.28;;;15.60;96.00;;;;;;5075408;28;20499;-77
2021/09/25 09:18:22;;;;;;;9.43;4.80;;;15.70;95.90;;;;;;5075335;28;20028;-77
2021/09/25 09:21:16;;;;;;;8.60;4.68;;;15.70;95.90;;;;;;5074740;28;20028;-78
2021/09/25 09:23:51;;;;;;;8.02;5.32;;;15.80;95.70;;;;;;5071873;28;20054;-77
2021/09/25 09:26:19;;;;;;;7.22;4.55;;;15.80;95.60;;;;;;5075021;28;20111;-77
2021/09/25 09:28:48;;;;;;;7.22;4.68;;;15.80;95.60;;;;;;5075754;28;20248;-77
2021/09/25 09:31:15;;;;;;;8.45;4.78;;;15.80;95.60;;;;;;5075108;28;20055;-78
2021/09/25 09:33:45;;;;;;;7.22;4.75;;;16.00;95.90;;;;;;5074248;28;20362;-77
2021/09/25 09:36:13;;;;;;;7.43;4.57;;;16.00;95.70;;;;;;5091899;28;20044;-77
2021/09/25 09:38:53;;;;;;;6.63;4.53;;;16.10;95.90;;;;;;5075052;28;20107;-78
2021/09/25 09:41:52;;;;;;;9.18;4.78;;;16.20;95.60;;;;;;5074892;28;20054;-77
2021/09/25 09:44:20;;;;;;;8.55;5.20;;;16.30;95.10;;;;;;5042432;28;20474;-77
2021/09/25 09:46:52;;;;;;;9.43;5.60;;;16.20;95.20;;;;;;5074079;28;20277;-78
2021/09/25 09:49:22;;;;;;;;;;;16.20;95.20;;;;;;5076150;28;20065;-77
2021/09/25 09:51:53;;;;;;;13.90;8.95;;;16.30;95.00;;;;;;5074455;28;19915;-77
2021/09/25 09:54:27;;;;;;;13.65;7.90;;;16.30;95.00;;;;;;5074303;28;20085;-77
2021/09/25 09:56:56;;;;;;;11.48;5.72;;;16.30;95.00;;;;;;5074537;28;20486;-77
2021/09/25 09:59:22;;;;;;;11.80;5.15;;;16.40;95.30;;;;;;5074817;28;20063;-77
2021/09/25 10:01:48;;;;;;;8.63;5.20;;;16.40;95.10;;;;;;5074089;28;20039;-77
2021/09/25 10:04:15;;;;;;;7.70;4.55;;;16.50;95.10;;;;;;5076267;28;20029;-77
2021/09/25 10:06:41;;;;;;;6.97;4.93;;;16.60;95.00;;;;;;5074009;28;20382;-78
2021/09/25 10:09:11;;;;;;;6.05;4.43;;;16.60;94.70;;;;;;5074402;28;20461;-77
2021/09/25 10:11:39;;;;;;;6.65;3.85;;;16.80;94.70;;;;;;5074185;28;20032;-78
2021/09/25 10:14:06;;;;;;;6.75;4.30;;;16.80;94.50;;;;;;5073623;28;20054;-77
2021/09/25 10:16:33;;;;;;;6.47;4.30;;;16.70;94.50;;;;;;5074700;28;20488;-77
2021/09/25 10:19:01;;;;;;;8.07;3.95;;;16.80;94.40;;;;;;5073834;28;20056;-77
2021/09/25 10:21:29;;;;;;;7.03;3.92;;;16.90;94.50;;;;;;5074003;28;20028;-77
2021/09/25 10:24:29;;;;;;;6.75;4.30;;;16.90;94.30;;;;;;5075075;28;20028;-77
2021/09/25 10:26:55;;;;;;;5.82;3.78;;;16.90;94.10;;;;;;5074257;28;20059;-77
2021/09/25 10:29:24;;;;;;;8.10;4.03;;;17.00;94.00;;;;;;5073794;28;20538;-77
2021/09/25 10:32:23;;;;;;;8.02;4.18;;;17.10;94.00;;;;;;5073517;28;20481;-77
2021/09/25 10:35:09;;;;;;;8.85;4.38;;;17.20;94.00;;;;;;5073142;28;20133;-77
2021/09/25 10:37:43;;;;;;;7.07;4.68;;;17.20;94.00;;;;;;5073050;28;20481;-77
2021/09/25 10:40:19;;;;;;;6.57;3.97;;;17.30;94.10;;;;;;5090213;28;20523;-77
2021/09/25 10:42:49;;;;;;;6.10;4.28;;;17.50;93.90;;;;;;5074171;28;20028;-77
2021/09/25 10:45:28;;;;;;;6.60;4.10;;;17.50;93.60;;;;;;5073311;28;20024;-77
2021/09/25 10:48:05;;;;;;;5.75;4.30;;;17.60;93.50;;;;;;5072931;28;20068;-77
2021/09/25 10:50:32;;;;;;;5.10;3.97;;;17.60;94.10;;;;;;5089562;28;20374;-80
2021/09/25 10:53:16;;;;;;;5.82;3.97;;;17.80;93.70;;;;;;5073283;28;20024;-77
2021/09/25 10:55:45;;;;;;;4.93;3.53;;;17.80;93.50;;;;;;5073514;28;20462;-77
2021/09/25 10:58:11;;;;;;;6.05;4.15;;;17.80;93.60;;;;;;5074403;28;20025;-77
2021/09/25 11:00:51;;;;;;;6.30;4.10;;;17.80;93.60;;;;;;5073926;28;20028;-78
2021/09/25 11:06:11;;;;;;;6.38;4.00;;;18.00;93.70;;;;;;5074278;28;20119;-77
2021/09/25 11:08:38;;;;;;;5.57;4.03;;;18.00;93.40;;;;;;5073889;28;20025;-78
2021/09/25 11:11:09;;;;;;;6.72;3.70;;;18.10;93.40;;;;;;5073194;28;20029;-77
2021/09/25 11:14:00;;;;;;;4.95;3.80;;;18.20;93.50;;;;;;5072758;28;20097;-78
2021/09/25 11:16:45;;;;;;;6.82;3.97;;;18.20;93.20;;;;;;5089862;28;20443;-77
2021/09/25 11:19:26;;;;;;;5.90;3.97;;;18.30;93.40;;;;;;5089961;28;20067;-77
2021/09/25 11:22:05;;;;;;;8.90;3.90;;;18.30;93.40;;;;;;5088986;28;20058;-77
2021/09/25 11:24:37;;;;;;;8.30;4.50;;;18.40;93.20;;;;;;5088662;28;20028;-76
2021/09/25 11:27:14;;;;;;;5.20;4.13;;;18.60;93.20;;;;;;5072846;28;20115;-77
2021/09/25 11:29:59;;;;;;;4.80;3.60;;;18.60;92.80;;;;;;5072652;28;20124;-78
2021/09/25 11:32:27;;;;;;;6.25;3.55;;;18.60;92.60;;;;;;5073947;28;20484;-77
2021/09/25 11:34:53;;;;;;;5.15;3.85;;;18.70;92.90;;;;;;5073351;28;20252;-77
2021/09/25 11:37:20;;;;;;;7.53;3.97;;;18.80;92.80;;;;;;5073840;28;20109;-77
2021/09/25 11:39:47;;;;;;;6.15;4.05;;;19.00;92.40;;;;;;5073207;28;20052;-77
2021/09/25 11:42:15;;;;;;;8.88;4.53;;;19.00;92.30;;;;;;5073541;28;20039;-77
2021/09/25 11:44:47;;;;;;;5.95;4.00;;;19.00;92.20;;;;;;5073184;28;20036;-78
2021/09/25 11:47:26;;;;;;;5.28;3.55;;;19.00;92.10;;;;;;5089342;28;20028;-77
2021/09/25 11:49:54;;;;;;;5.70;3.63;;;19.20;91.90;;;;;;5088941;28;20485;-77
2021/09/25 11:52:19;;;;;;;4.75;3.65;;;19.30;91.80;;;;;;5072295;28;20035;-77
2021/09/25 11:54:46;;;;;;;5.35;3.42;;;19.40;92.00;;;;;;5071826;28;20021;-77
2021/09/25 11:57:13;;;;;;;4.68;3.55;;;19.50;91.70;;;;;;5074024;28;20481;-77
2021/09/25 11:59:38;;;;;;;7.38;3.90;;;19.70;91.80;;;;;;5073198;28;20059;-78
2021/09/25 12:02:04;;;;;;;5.72;3.90;;;19.90;91.30;;;;;;5072472;28;20028;-77
2021/09/25 12:04:41;;;;;;;7.20;3.63;;;20.10;91.10;;;;;;5072324;28;20024;-77
2021/09/25 12:07:07;;;;;;;9.18;3.45;;;20.20;90.80;;;;;;5073865;28;20052;-77
2021/09/25 12:09:45;;;;;;;6.00;3.55;;;20.40;90.30;;;;;;5073502;28;20458;-77
2021/09/25 12:12:12;;;;;;;4.70;3.08;;;20.60;89.80;;;;;;5072160;28;20119;-77
2021/09/25 12:14:45;;;;;;;4.63;3.10;;;20.80;89.00;;;;;;5072470;28;20029;-77
2021/09/25 12:17:15;;;;;;;4.05;3.03;;;21.00;88.30;;;;;;5071881;28;20569;-77
2021/09/25 12:19:44;;;;;;;4.63;3.40;;;21.20;87.60;;;;;;5071728;28;20060;-78
2021/09/25 12:22:23;;;;;;;6.07;3.72;;;21.40;86.70;;;;;;5072446;28;20036;-77
2021/09/25 12:24:49;;;;;;;4.55;3.38;;;21.70;86.00;;;;;;5072834;28;20032;-78
2021/09/25 12:27:28;;;;;;;4.05;3.28;;;21.90;85.80;;;;;;5072390;28;20071;-78
2021/09/25 12:29:54;;;;;;;4.57;3.28;;;22.10;85.40;;;;;;5071656;28;20020;-78
2021/09/25 12:32:21;;;;;;;4.28;3.38;;;22.30;84.60;;;;;;5072162;28;20024;-78
2021/09/25 12:34:49;;;;;;;5.82;3.15;;;22.40;83.50;;;;;;5071772;28;20047;-78
2021/09/25 12:37:14;;;;;;;3.75;3.30;;;22.70;81.20;;;;;;5076455;28;20028;-78
2021/09/25 12:39:44;;;;;;;5.40;3.58;;;22.90;79.90;;;;;;5075620;28;20379;-79
2021/09/25 12:42:22;;;;;;;4.03;3.13;;;23.10;79.80;;;;;;5076282;28;20086;-78
2021/09/25 12:44:51;;;;;;;4.20;3.05;;;23.30;79.10;;;;;;5075506;28;20040;-78
2021/09/25 12:47:29;;;;;;;8.30;3.05;;;23.60;79.20;;;;;;5076187;28;20492;-79
2021/09/25 12:50:13;;;;;;;3.42;3.08;;;23.60;78.10;;;;;;5075562;28;20539;-79